createdAt,value
2023-05-16T00:00:36.636Z,28.66
2023-05-16T00:03:06.017Z,28.41
2023-05-16T00:05:35.141Z,28.66
2023-05-16T00:08:03.737Z,28.68
2023-05-16T00:10:32.400Z,28.67
2023-05-16T00:13:03.273Z,28.72
2023-05-16T00:15:32.137Z,28.70
2023-05-16T00:18:01.364Z,28.72
2023-05-16T00:20:30.917Z,28.71
2023-05-16T00:23:02.491Z,28.51
2023-05-16T00:25:31.078Z,28.69
2023-05-16T00:27:59.764Z,28.57
2023-05-16T00:30:28.817Z,28.81
2023-05-16T00:32:57.662Z,28.71
2023-05-16T00:35:25.677Z,28.72
2023-05-16T00:37:54.503Z,28.63
2023-05-16T00:40:23.074Z,28.62
2023-05-16T00:42:51.209Z,28.70
2023-05-16T00:45:20.471Z,28.54
2023-05-16T00:47:49.443Z,28.72
2023-05-16T00:50:18.671Z,28.69
2023-05-16T00:52:47.424Z,28.61
2023-05-16T00:55:16.152Z,28.54
2023-05-16T00:57:44.912Z,28.56
2023-05-16T01:00:17.296Z,28.40
2023-05-16T01:02:46.345Z,28.57
2023-05-16T01:05:15.002Z,28.58
2023-05-16T01:07:43.227Z,28.61
2023-05-16T01:10:11.824Z,28.58
2023-05-16T01:12:59.163Z,28.50
2023-05-16T01:15:32.886Z,28.36
2023-05-16T01:18:16.485Z,28.44
2023-05-16T01:21:11.882Z,28.39
2023-05-16T01:24:02.867Z,28.23
2023-05-16T01:26:33.987Z,28.18
2023-05-16T01:29:05.336Z,28.29
2023-05-16T01:31:34.027Z,28.32
2023-05-16T01:34:02.650Z,28.18
2023-05-16T01:36:44.425Z,28.23
2023-05-16T01:39:32.158Z,28.21
2023-05-16T01:42:09.454Z,28.17
2023-05-16T01:44:45.364Z,28.14
2023-05-16T01:47:17.391Z,28.09
2023-05-16T01:49:52.383Z,28.00
2023-05-16T01:52:34.275Z,27.90
2023-05-16T01:55:04.591Z,27.85
2023-05-16T01:57:34.426Z,27.71
2023-05-16T02:00:04.158Z,27.46
2023-05-16T02:02:32.983Z,27.47
2023-05-16T02:05:01.828Z,27.25
2023-05-16T02:07:30.458Z,27.30
2023-05-16T02:09:59.971Z,27.25
2023-05-16T02:12:28.615Z,27.19
2023-05-16T02:14:57.268Z,27.02
2023-05-16T02:17:26.926Z,26.96
2023-05-16T02:19:55.754Z,26.89
2023-05-16T02:22:24.396Z,26.81
2023-05-16T02:24:52.534Z,26.60
2023-05-16T02:27:21.330Z,26.59
2023-05-16T02:29:50.030Z,26.54
2023-05-16T02:32:19.009Z,26.37
2023-05-16T02:34:47.325Z,26.05
2023-05-16T02:37:15.976Z,26.12
2023-05-16T02:39:44.747Z,25.84
2023-05-16T02:42:13.537Z,25.69
2023-05-16T02:44:42.677Z,25.70
2023-05-16T02:47:11.306Z,25.49
2023-05-16T02:49:39.680Z,25.36
2023-05-16T02:52:08.992Z,25.27
2023-05-16T02:54:37.762Z,25.21
2023-05-16T02:57:06.611Z,25.15
2023-05-16T02:59:34.993Z,25.13
2023-05-16T03:02:04.044Z,25.02
2023-05-16T03:04:32.342Z,24.77
2023-05-16T03:07:01.264Z,24.69
2023-05-16T03:09:30.089Z,24.56
2023-05-16T03:11:58.722Z,24.35
2023-05-16T03:14:27.356Z,24.28
2023-05-16T03:16:55.965Z,24.22
2023-05-16T03:19:24.712Z,24.08
2023-05-16T03:21:54.433Z,23.95
2023-05-16T03:24:24.352Z,23.80
2023-05-16T03:26:53.453Z,23.89
2023-05-16T03:29:22.088Z,23.73
2023-05-16T03:31:50.718Z,23.53
2023-05-16T03:34:19.346Z,23.54
2023-05-16T03:36:48.000Z,23.40
2023-05-16T03:39:17.084Z,23.71
2023-05-16T03:41:46.105Z,23.62
2023-05-16T03:44:14.985Z,23.47
2023-05-16T03:46:43.488Z,23.17
2023-05-16T03:49:12.426Z,23.26
2023-05-16T03:51:41.265Z,23.32
2023-05-16T03:54:09.868Z,23.11
2023-05-16T03:56:38.409Z,22.72
2023-05-16T03:59:07.309Z,22.59
2023-05-16T04:01:36.262Z,22.65
2023-05-16T04:04:05.033Z,22.68
2023-05-16T04:06:34.150Z,22.60
2023-05-16T04:09:02.752Z,22.60
2023-05-16T04:11:30.888Z,22.31
2023-05-16T04:14:01.066Z,22.40
2023-05-16T04:16:32.808Z,22.27
2023-05-16T04:19:01.524Z,22.31
2023-05-16T04:21:29.695Z,22.40
2023-05-16T04:23:59.112Z,22.38
2023-05-16T04:26:28.956Z,22.33
2023-05-16T04:29:00.137Z,22.30
2023-05-16T04:31:29.067Z,21.96
2023-05-16T04:33:59.387Z,22.01
2023-05-16T04:36:31.641Z,21.97
2023-05-16T04:39:00.330Z,22.07
2023-05-16T04:41:28.491Z,21.91
2023-05-16T04:43:57.977Z,21.84
2023-05-16T04:46:26.889Z,21.87
2023-05-16T04:48:55.521Z,21.86
2023-05-16T04:51:23.768Z,21.76
2023-05-16T04:53:52.432Z,21.66
2023-05-16T04:56:21.463Z,21.64
2023-05-16T04:58:50.107Z,21.49
2023-05-16T05:01:18.775Z,21.41
2023-05-16T05:03:48.436Z,21.57
2023-05-16T05:06:17.956Z,21.64
2023-05-16T05:08:46.696Z,21.52
2023-05-16T05:11:15.567Z,21.48
2023-05-16T05:13:44.181Z,21.25
2023-05-16T05:16:13.299Z,21.46
2023-05-16T05:18:42.187Z,21.51
2023-05-16T05:21:10.622Z,21.45
2023-05-16T05:23:39.210Z,21.25
2023-05-16T05:26:08.070Z,21.11
2023-05-16T05:28:36.948Z,21.01
2023-05-16T05:31:09.637Z,20.74
2023-05-16T05:33:38.294Z,20.77
2023-05-16T05:36:07.210Z,20.65
2023-05-16T05:38:35.816Z,20.59
2023-05-16T05:41:04.441Z,20.67
2023-05-16T05:43:33.126Z,20.70
2023-05-16T05:46:01.785Z,20.49
2023-05-16T05:48:31.472Z,20.32
2023-05-16T05:51:00.099Z,20.29
2023-05-16T05:53:28.876Z,20.36
2023-05-16T05:55:56.887Z,20.26
2023-05-16T05:58:25.436Z,20.34
2023-05-16T06:00:54.081Z,20.45
2023-05-16T06:03:23.164Z,20.37
2023-05-16T06:05:55.111Z,20.40
2023-05-16T06:08:23.962Z,20.29
2023-05-16T06:10:52.102Z,20.47
2023-05-16T06:13:20.719Z,20.41
2023-05-16T06:15:54.174Z,20.27
2023-05-16T06:18:23.205Z,20.27
2023-05-16T06:20:52.240Z,20.26
2023-05-16T06:23:21.560Z,20.27
2023-05-16T06:25:49.610Z,20.24
2023-05-16T06:28:18.251Z,20.18
2023-05-16T06:30:48.507Z,20.21
2023-05-16T06:33:16.917Z,20.18
2023-05-16T06:35:45.237Z,20.13
2023-05-16T06:38:13.867Z,20.09
2023-05-16T06:40:42.325Z,19.95
2023-05-16T06:43:11.104Z,19.63
2023-05-16T06:45:40.020Z,19.62
2023-05-16T06:48:09.079Z,19.50
2023-05-16T06:50:37.532Z,19.23
2023-05-16T06:53:07.773Z,19.43
2023-05-16T06:55:36.521Z,19.30
2023-05-16T06:58:06.100Z,19.11
2023-05-16T07:00:34.788Z,18.95
2023-05-16T07:03:04.797Z,18.76
2023-05-16T07:05:33.678Z,18.67
2023-05-16T07:08:02.370Z,18.48
2023-05-16T07:10:31.593Z,18.28
2023-05-16T07:12:59.826Z,17.81
2023-05-16T07:15:28.479Z,17.73
2023-05-16T07:17:57.503Z,17.64
2023-05-16T07:20:26.879Z,17.46
2023-05-16T07:22:55.492Z,17.44
2023-05-16T07:25:24.213Z,17.60
2023-05-16T07:27:52.478Z,17.84
2023-05-16T07:30:21.851Z,17.96
2023-05-16T07:32:51.365Z,18.02
2023-05-16T07:35:19.818Z,18.04
2023-05-16T07:37:48.781Z,17.86
2023-05-16T07:40:19.553Z,17.99
2023-05-16T07:42:48.208Z,17.83
2023-05-16T07:45:17.024Z,18.01
2023-05-16T07:47:45.690Z,17.84
2023-05-16T07:50:14.424Z,17.94
2023-05-16T07:52:44.220Z,17.91
2023-05-16T07:55:13.213Z,17.68
2023-05-16T07:57:42.185Z,17.77
2023-05-16T08:00:11.524Z,17.71
2023-05-16T08:02:40.873Z,17.61
2023-05-16T08:05:09.885Z,17.70
2023-05-16T08:07:38.730Z,17.67
2023-05-16T08:10:07.938Z,17.47
2023-05-16T08:12:36.893Z,17.39
2023-05-16T08:15:06.556Z,17.41
2023-05-16T08:17:35.777Z,17.41
2023-05-16T08:20:05.443Z,17.11
2023-05-16T08:22:34.882Z,17.10
2023-05-16T08:25:03.108Z,17.04
2023-05-16T08:27:32.151Z,16.91
2023-05-16T08:30:00.532Z,16.64
2023-05-16T08:32:29.368Z,16.75
2023-05-16T08:34:57.817Z,16.59
2023-05-16T08:37:26.454Z,16.44
2023-05-16T08:39:55.152Z,16.67
2023-05-16T08:42:23.843Z,16.63
2023-05-16T08:44:52.227Z,16.67
2023-05-16T08:47:23.476Z,16.70
2023-05-16T08:49:53.683Z,16.63
2023-05-16T08:52:25.663Z,16.55
2023-05-16T08:55:09.319Z,16.50
2023-05-16T08:57:40.753Z,16.38
2023-05-16T09:00:13.861Z,16.35
2023-05-16T09:02:45.880Z,16.27
2023-05-16T09:05:18.214Z,16.20
2023-05-16T09:07:48.128Z,16.23
2023-05-16T09:10:16.818Z,15.89
2023-05-16T09:12:45.530Z,15.81
2023-05-16T09:15:14.086Z,15.66
2023-05-16T09:17:47.887Z,15.50
2023-05-16T09:20:21.497Z,15.58
2023-05-16T09:22:57.485Z,15.24
2023-05-16T09:25:31.980Z,15.23
2023-05-16T09:28:04.052Z,14.90
2023-05-16T09:30:36.519Z,14.92
2023-05-16T09:33:07.894Z,14.78
2023-05-16T09:35:45.102Z,14.64
2023-05-16T09:38:19.097Z,14.40
2023-05-16T09:40:48.161Z,14.41
2023-05-16T09:43:18.670Z,14.22
2023-05-16T09:45:49.653Z,14.12
2023-05-16T09:48:19.059Z,14.02
2023-05-16T09:50:56.403Z,14.09
2023-05-16T09:53:33.526Z,13.85
2023-05-16T09:56:12.310Z,14.05
2023-05-16T09:58:42.255Z,13.88
2023-05-16T10:01:12.242Z,13.94
2023-05-16T10:03:43.034Z,13.80
2023-05-16T10:06:14.172Z,13.57
2023-05-16T10:08:45.064Z,13.60
2023-05-16T10:11:13.995Z,13.53
2023-05-16T10:13:43.058Z,13.42
2023-05-16T10:16:16.493Z,13.37
2023-05-16T10:18:45.504Z,13.40
2023-05-16T10:21:17.335Z,13.15
2023-05-16T10:23:49.799Z,13.31
2023-05-16T10:26:19.874Z,13.13
2023-05-16T10:28:49.606Z,12.92
2023-05-16T10:31:18.816Z,12.78
2023-05-16T10:33:51.485Z,12.99
2023-05-16T10:36:20.875Z,12.96
2023-05-16T10:38:50.355Z,12.99
2023-05-16T10:41:20.016Z,13.13
2023-05-16T10:44:00.198Z,13.12
2023-05-16T10:46:32.485Z,12.93
2023-05-16T10:49:01.505Z,13.22
2023-05-16T10:51:37.958Z,13.39
2023-05-16T10:54:10.679Z,13.56
2023-05-16T10:56:40.117Z,14.06
2023-05-16T10:59:25.734Z,14.29
2023-05-16T11:01:55.395Z,14.62
2023-05-16T11:04:24.166Z,14.69
2023-05-16T11:06:55.064Z,14.72
2023-05-16T11:09:26.838Z,14.92
2023-05-16T11:12:04.865Z,14.93
2023-05-16T11:14:36.288Z,14.99
2023-05-16T11:17:16.366Z,15.05
2023-05-16T11:19:53.319Z,15.01
2023-05-16T11:22:25.132Z,15.02
2023-05-16T11:24:55.035Z,14.96
2023-05-16T11:27:46.131Z,14.97
2023-05-16T11:30:20.776Z,15.00
2023-05-16T11:32:50.633Z,14.95
2023-05-16T11:35:19.927Z,14.91
2023-05-16T11:37:49.465Z,14.68
2023-05-16T11:40:18.666Z,14.81
2023-05-16T11:42:49.267Z,14.81
2023-05-16T11:45:24.104Z,14.67
2023-05-16T11:47:53.242Z,14.59
2023-05-16T11:50:27.421Z,14.64
2023-05-16T11:52:58.466Z,14.60
2023-05-16T11:55:41.469Z,14.53
2023-05-16T11:58:13.602Z,14.22
2023-05-16T12:00:51.103Z,14.42
2023-05-16T12:03:21.925Z,14.35
2023-05-16T12:05:58.417Z,14.21
2023-05-16T12:08:27.065Z,14.33
2023-05-16T12:10:56.026Z,14.32
2023-05-16T12:13:27.003Z,14.29
2023-05-16T12:15:55.854Z,14.26
2023-05-16T12:18:25.902Z,14.20
2023-05-16T12:20:54.871Z,14.25
2023-05-16T12:23:23.153Z,14.09
2023-05-16T12:25:51.874Z,14.22
2023-05-16T12:28:20.087Z,13.97
2023-05-16T12:30:52.308Z,14.16
2023-05-16T12:33:21.279Z,14.06
2023-05-16T12:35:49.719Z,13.99
2023-05-16T12:38:19.013Z,14.13
2023-05-16T12:40:50.160Z,14.09
2023-05-16T12:43:22.174Z,14.12
2023-05-16T12:45:56.125Z,14.13
2023-05-16T12:48:35.908Z,14.13
2023-05-16T12:51:17.223Z,14.13
2023-05-16T12:54:01.270Z,14.20
2023-05-16T12:56:30.503Z,14.26
2023-05-16T12:58:59.537Z,14.25
2023-05-16T13:01:28.434Z,14.33
2023-05-16T13:03:57.386Z,14.29
2023-05-16T13:06:27.162Z,14.13
2023-05-16T13:08:56.621Z,14.32
2023-05-16T13:11:27.470Z,14.13
2023-05-16T13:13:56.107Z,14.25
2023-05-16T13:16:24.955Z,14.35
2023-05-16T13:18:53.851Z,14.36
2023-05-16T13:21:23.949Z,14.32
2023-05-16T13:23:52.068Z,14.18
2023-05-16T13:26:20.262Z,14.27
2023-05-16T13:28:49.126Z,14.18
2023-05-16T13:31:18.350Z,14.36
2023-05-16T13:33:47.037Z,14.26
2023-05-16T13:36:15.724Z,14.25
2023-05-16T13:38:44.613Z,14.48
2023-05-16T13:41:13.429Z,14.37
2023-05-16T13:43:43.606Z,14.55
2023-05-16T13:46:12.480Z,14.57
2023-05-16T13:48:41.208Z,14.59
2023-05-16T13:51:09.587Z,14.43
2023-05-16T13:53:38.144Z,14.63
2023-05-16T13:56:07.453Z,14.53
2023-05-16T13:58:42.968Z,14.73
2023-05-16T14:01:21.426Z,14.67
2023-05-16T14:03:50.083Z,14.69
2023-05-16T14:06:19.019Z,14.69
2023-05-16T14:08:47.690Z,14.55
2023-05-16T14:11:16.305Z,14.52
2023-05-16T14:13:44.908Z,14.70
2023-05-16T14:16:13.657Z,14.74
2023-05-16T14:18:41.926Z,14.77
2023-05-16T14:21:10.638Z,14.76
2023-05-16T14:23:39.407Z,14.77
2023-05-16T14:26:08.612Z,14.84
2023-05-16T14:28:37.578Z,14.74
2023-05-16T14:31:06.412Z,14.88
2023-05-16T14:33:35.135Z,14.85
2023-05-16T14:36:05.295Z,14.88
2023-05-16T14:38:36.414Z,14.72
2023-05-16T14:41:05.069Z,14.85
2023-05-16T14:43:33.947Z,14.96
2023-05-16T14:46:03.349Z,15.05
2023-05-16T14:48:32.488Z,14.89
2023-05-16T14:51:01.272Z,15.17
2023-05-16T14:53:29.724Z,15.29
2023-05-16T14:55:59.782Z,15.28
2023-05-16T14:58:28.463Z,15.18
2023-05-16T15:00:56.879Z,15.38
2023-05-16T15:03:25.793Z,15.32
2023-05-16T15:05:54.601Z,15.35
2023-05-16T15:08:23.572Z,15.27
2023-05-16T15:10:52.340Z,15.40
2023-05-16T15:13:20.898Z,15.42
2023-05-16T15:15:49.657Z,15.36
2023-05-16T15:18:18.333Z,15.55
2023-05-16T15:20:47.122Z,15.54
2023-05-16T15:23:15.525Z,15.41
2023-05-16T15:25:44.133Z,15.56
2023-05-16T15:28:12.859Z,15.44
2023-05-16T15:30:41.643Z,15.71
2023-05-16T15:33:10.536Z,15.54
2023-05-16T15:35:39.155Z,15.60
2023-05-16T15:38:09.701Z,15.52
2023-05-16T15:40:38.371Z,15.75
2023-05-16T15:43:07.923Z,16.01
2023-05-16T15:45:38.570Z,16.24
2023-05-16T15:48:08.308Z,16.08
2023-05-16T15:50:36.789Z,16.14
2023-05-16T15:53:05.515Z,16.06
2023-05-16T15:55:35.156Z,16.18
2023-05-16T15:58:04.792Z,16.12
2023-05-16T16:00:33.704Z,16.44
2023-05-16T16:03:02.903Z,16.29
2023-05-16T16:05:33.802Z,16.14
2023-05-16T16:08:02.292Z,16.35
2023-05-16T16:10:31.066Z,16.36
2023-05-16T16:13:04.956Z,16.60
2023-05-16T16:15:34.441Z,16.12
2023-05-16T16:18:03.322Z,16.38
2023-05-16T16:20:32.228Z,16.44
2023-05-16T16:23:01.108Z,16.43
2023-05-16T16:25:30.077Z,16.25
2023-05-16T16:28:00.975Z,16.27
2023-05-16T16:30:29.716Z,16.21
2023-05-16T16:32:59.354Z,16.33
2023-05-16T16:35:28.662Z,16.35
2023-05-16T16:38:06.086Z,16.69
2023-05-16T16:40:35.211Z,16.87
2023-05-16T16:43:03.873Z,17.06
2023-05-16T16:45:32.514Z,16.77
2023-05-16T16:48:01.210Z,16.72
2023-05-16T16:50:30.372Z,16.63
2023-05-16T16:53:02.698Z,16.54
2023-05-16T16:55:31.513Z,16.63
2023-05-16T16:58:00.184Z,16.80
2023-05-16T17:00:28.963Z,16.97
2023-05-16T17:02:58.390Z,16.70
2023-05-16T17:05:27.676Z,16.84
2023-05-16T17:07:56.493Z,17.03
2023-05-16T17:10:24.835Z,17.01
2023-05-16T17:12:53.819Z,17.45
2023-05-16T17:15:22.710Z,17.48
2023-05-16T17:17:51.412Z,17.05
2023-05-16T17:20:19.471Z,17.38
2023-05-16T17:22:49.648Z,17.37
2023-05-16T17:25:18.386Z,17.49
2023-05-16T17:27:47.156Z,17.21
2023-05-16T17:30:17.094Z,17.19
2023-05-16T17:32:47.041Z,17.59
2023-05-16T17:35:15.744Z,17.81
2023-05-16T17:37:44.507Z,17.38
2023-05-16T17:40:18.185Z,17.20
2023-05-16T17:42:47.451Z,17.23
2023-05-16T17:45:17.783Z,17.58
2023-05-16T17:47:47.180Z,17.31
2023-05-16T17:50:15.850Z,17.60
2023-05-16T17:52:46.578Z,17.37
2023-05-16T17:55:15.299Z,17.41
2023-05-16T17:57:43.754Z,17.55
2023-05-16T18:00:12.886Z,17.72
2023-05-16T18:02:41.715Z,17.55
2023-05-16T18:05:11.203Z,17.62
2023-05-16T18:07:40.004Z,17.46
2023-05-16T18:10:09.977Z,17.68
2023-05-16T18:12:40.321Z,17.97
2023-05-16T18:15:10.261Z,18.21
2023-05-16T18:17:39.246Z,18.36
2023-05-16T18:20:11.877Z,18.38
2023-05-16T18:22:41.411Z,18.26
2023-05-16T18:25:10.923Z,18.17
2023-05-16T18:27:40.328Z,18.13
2023-05-16T18:30:10.077Z,18.37
2023-05-16T18:32:38.382Z,18.34
2023-05-16T18:35:07.511Z,18.39
2023-05-16T18:37:36.414Z,18.41
2023-05-16T18:40:05.206Z,18.43
2023-05-16T18:42:33.404Z,18.40
2023-05-16T18:45:02.143Z,18.37
2023-05-16T18:47:30.902Z,18.29
2023-05-16T18:49:59.813Z,18.75
2023-05-16T18:52:28.451Z,18.87
2023-05-16T18:54:57.050Z,18.92
2023-05-16T18:57:25.713Z,18.61
2023-05-16T18:59:54.436Z,18.68
2023-05-16T19:02:34.009Z,18.82
2023-05-16T19:05:10.692Z,19.14
2023-05-16T19:07:39.564Z,18.93
2023-05-16T19:10:09.224Z,18.86
2023-05-16T19:12:38.114Z,18.75
2023-05-16T19:15:09.423Z,18.86
2023-05-16T19:17:38.402Z,19.01
2023-05-16T19:20:07.598Z,18.93
2023-05-16T19:22:36.934Z,18.84
2023-05-16T19:25:06.176Z,19.00
2023-05-16T19:27:34.813Z,18.93
2023-05-16T19:30:03.385Z,19.15
2023-05-16T19:32:32.139Z,18.80
2023-05-16T19:35:01.350Z,18.92
2023-05-16T19:37:29.629Z,18.70
2023-05-16T19:39:57.928Z,18.89
2023-05-16T19:42:26.510Z,19.06
2023-05-16T19:44:55.198Z,19.30
2023-05-16T19:47:23.873Z,19.31
2023-05-16T19:49:51.894Z,19.19
2023-05-16T19:52:20.254Z,19.53
2023-05-16T19:54:48.897Z,19.45
2023-05-16T19:57:17.132Z,19.49
2023-05-16T19:59:46.712Z,19.15
2023-05-16T20:02:18.185Z,19.48
2023-05-16T20:04:48.448Z,19.55
2023-05-16T20:07:17.178Z,19.49
2023-05-16T20:09:45.856Z,19.76
2023-05-16T20:12:14.816Z,19.80
2023-05-16T20:14:44.727Z,19.79
2023-05-16T20:17:13.499Z,19.85
2023-05-16T20:19:44.781Z,19.99
2023-05-16T20:22:13.448Z,20.18
2023-05-16T20:24:42.135Z,20.21
2023-05-16T20:27:10.817Z,19.93
2023-05-16T20:29:39.483Z,20.06
2023-05-16T20:32:08.503Z,19.98
2023-05-16T20:34:37.431Z,20.06
2023-05-16T20:37:07.255Z,19.93
2023-05-16T20:39:36.317Z,20.03
2023-05-16T20:42:05.729Z,19.91
2023-05-16T20:44:35.108Z,19.94
2023-05-16T20:47:03.731Z,19.91
2023-05-16T20:49:32.467Z,19.96
2023-05-16T20:52:01.073Z,19.98
2023-05-16T20:54:29.705Z,20.29
2023-05-16T20:56:58.388Z,20.48
2023-05-16T20:59:27.589Z,20.02
2023-05-16T21:01:56.740Z,20.03
2023-05-16T21:04:25.425Z,20.29
2023-05-16T21:06:53.751Z,20.35
2023-05-16T21:09:23.351Z,20.50
2023-05-16T21:11:52.011Z,20.20
2023-05-16T21:14:20.646Z,20.09
2023-05-16T21:16:49.226Z,20.56
2023-05-16T21:19:18.178Z,20.33
2023-05-16T21:21:47.022Z,20.53
2023-05-16T21:24:15.732Z,20.59
2023-05-16T21:26:43.945Z,20.62
2023-05-16T21:29:12.278Z,20.68
2023-05-16T21:31:41.918Z,20.43
2023-05-16T21:34:11.076Z,20.32
2023-05-16T21:36:39.719Z,20.40
2023-05-16T21:39:08.348Z,20.69
2023-05-16T21:41:37.161Z,20.80
2023-05-16T21:44:05.875Z,20.68
2023-05-16T21:46:34.570Z,20.45
2023-05-16T21:49:03.022Z,20.54
2023-05-16T21:51:32.159Z,20.61
2023-05-16T21:54:00.794Z,20.66
2023-05-16T21:56:29.485Z,20.67
2023-05-16T21:58:59.173Z,20.60
2023-05-16T22:01:29.567Z,20.69
2023-05-16T22:03:59.286Z,20.56
2023-05-16T22:06:28.073Z,21.04
2023-05-16T22:08:56.718Z,20.94
2023-05-16T22:11:25.582Z,21.11
2023-05-16T22:13:54.325Z,20.81
2023-05-16T22:16:22.974Z,20.83
2023-05-16T22:18:51.771Z,20.95
2023-05-16T22:21:21.444Z,21.13
2023-05-16T22:23:49.977Z,21.02
2023-05-16T22:26:18.801Z,20.98
2023-05-16T22:28:47.468Z,21.01
2023-05-16T22:31:15.721Z,20.94
2023-05-16T22:33:44.039Z,20.92
2023-05-16T22:36:12.780Z,20.87
2023-05-16T22:38:40.891Z,20.70
2023-05-16T22:41:08.960Z,20.62
2023-05-16T22:43:37.071Z,20.73
2023-05-16T22:46:05.155Z,20.62
2023-05-16T22:48:33.191Z,20.89
2023-05-16T22:51:03.707Z,20.84
2023-05-16T22:53:31.884Z,20.57
2023-05-16T22:56:00.593Z,20.83
2023-05-16T22:58:28.604Z,20.50
2023-05-16T23:00:58.873Z,20.45
2023-05-16T23:03:43.720Z,20.55
2023-05-16T23:06:22.171Z,20.60
2023-05-16T23:09:09.433Z,20.39
2023-05-16T23:11:41.979Z,20.54
2023-05-16T23:14:10.133Z,20.31
2023-05-16T23:16:38.748Z,20.49
2023-05-16T23:19:09.357Z,20.29
2023-05-16T23:21:38.835Z,20.25
2023-05-16T23:24:07.301Z,20.16
2023-05-16T23:26:36.032Z,20.27
2023-05-16T23:29:04.864Z,20.25
2023-05-16T23:31:32.955Z,20.28
2023-05-16T23:34:02.143Z,20.43
2023-05-16T23:36:30.887Z,20.30
2023-05-16T23:38:59.086Z,20.23
2023-05-16T23:41:27.751Z,20.20
2023-05-16T23:43:55.910Z,20.09
2023-05-16T23:46:24.355Z,20.04
2023-05-16T23:48:52.743Z,19.97
2023-05-16T23:51:22.558Z,19.80
2023-05-16T23:53:51.218Z,19.79
2023-05-16T23:56:19.205Z,19.75
2023-05-16T23:58:47.795Z,19.77
